sensor_id;sensor_type;location;lat;lon;timestamp;temperature;humidity
15656;DHT22;7928;43.614;1.456;2023-03-01T00:00:59;2.90;1.00
15656;DHT22;7928;43.614;1.456;2023-03-01T00:03:27;2.90;1.00
15656;DHT22;7928;43.614;1.456;2023-03-01T00:05:54;2.90;1.00
15656;DHT22;7928;43.614;1.456;2023-03-01T00:08:21;3.00;1.00
15656;DHT22;7928;43.614;1.456;2023-03-01T00:10:49;3.00;1.00
15656;DHT22;7928;43.614;1.456;2023-03-01T00:13:25;3.00;1.00
15656;DHT22;7928;43.614;1.456;2023-03-01T00:15:52;3.10;1.00
15656;DHT22;7928;43.614;1.456;2023-03-01T00:18:19;3.10;1.00
15656;DHT22;7928;43.614;1.456;2023-03-01T00:20:50;3.10;1.00
15656;DHT22;7928;43.614;1.456;2023-03-01T00:23:17;3.10;1.00
15656;DHT22;7928;43.614;1.456;2023-03-01T00:25:44;3.10;1.00
15656;DHT22;7928;43.614;1.456;2023-03-01T00:28:12;3.10;1.00
15656;DHT22;7928;43.614;1.456;2023-03-01T00:30:39;3.10;1.00
15656;DHT22;7928;43.614;1.456;2023-03-01T00:33:06;3.10;1.00
15656;DHT22;7928;43.614;1.456;2023-03-01T00:35:34;3.10;1.00
15656;DHT22;7928;43.614;1.456;2023-03-01T00:38:01;3.20;1.00
15656;DHT22;7928;43.614;1.456;2023-03-01T00:40:32;3.20;1.00
15656;DHT22;7928;43.614;1.456;2023-03-01T00:42:59;3.30;1.00
15656;DHT22;7928;43.614;1.456;2023-03-01T00:45:27;3.20;1.00
15656;DHT22;7928;43.614;1.456;2023-03-01T00:47:54;3.10;1.00
15656;DHT22;7928;43.614;1.456;2023-03-01T00:50:21;3.20;1.00
15656;DHT22;7928;43.614;1.456;2023-03-01T00:52:52;3.10;1.00
15656;DHT22;7928;43.614;1.456;2023-03-01T00:55:20;3.10;1.00
15656;DHT22;7928;43.614;1.456;2023-03-01T00:57:47;3.00;1.00
15656;DHT22;7928;43.614;1.456;2023-03-01T01:00:14;2.90;1.00
15656;DHT22;7928;43.614;1.456;2023-03-01T01:02:43;2.80;1.00
15656;DHT22;7928;43.614;1.456;2023-03-01T01:05:11;2.80;1.00
15656;DHT22;7928;43.614;1.456;2023-03-01T01:07:38;2.80;1.00
15656;DHT22;7928;43.614;1.456;2023-03-01T01:10:06;2.70;1.00
15656;DHT22;7928;43.614;1.456;2023-03-01T01:12:33;2.00;1.00
15656;DHT22;7928;43.614;1.456;2023-03-01T01:15:00;2.70;1.00
15656;DHT22;7928;43.614;1.456;2023-03-01T01:17:27;2.60;1.00
15656;DHT22;7928;43.614;1.456;2023-03-01T01:19:56;3.50;1.00
15656;DHT22;7928;43.614;1.456;2023-03-01T01:22:23;2.50;1.00
15656;DHT22;7928;43.614;1.456;2023-03-01T01:24:50;2.50;1.00
15656;DHT22;7928;43.614;1.456;2023-03-01T01:27:17;2.40;1.00
15656;DHT22;7928;43.614;1.456;2023-03-01T01:29:44;2.40;1.00
15656;DHT22;7928;43.614;1.456;2023-03-01T01:32:11;2.40;1.00
15656;DHT22;7928;43.614;1.456;2023-03-01T01:34:39;2.30;1.00
15656;DHT22;7928;43.614;1.456;2023-03-01T01:37:08;2.20;1.00
15656;DHT22;7928;43.614;1.456;2023-03-01T01:39:35;2.20;1.00
15656;DHT22;7928;43.614;1.456;2023-03-01T01:42:02;2.10;1.00
15656;DHT22;7928;43.614;1.456;2023-03-01T01:44:29;2.10;1.00
15656;DHT22;7928;43.614;1.456;2023-03-01T01:47:10;2.00;1.00
15656;DHT22;7928;43.614;1.456;2023-03-01T01:49:42;2.00;1.00
15656;DHT22;7928;43.614;1.456;2023-03-01T01:52:17;2.00;1.00
15656;DHT22;7928;43.614;1.456;2023-03-01T01:54:50;1.90;1.00
15656;DHT22;7928;43.614;1.456;2023-03-01T01:57:22;1.90;1.00
15656;DHT22;7928;43.614;1.456;2023-03-01T01:59:52;1.90;1.00
15656;DHT22;7928;43.614;1.456;2023-03-01T02:02:21;1.80;1.00
15656;DHT22;7928;43.614;1.456;2023-03-01T02:04:49;1.90;1.00
15656;DHT22;7928;43.614;1.456;2023-03-01T02:07:22;1.80;1.00
15656;DHT22;7928;43.614;1.456;2023-03-01T02:09:51;1.80;1.00
15656;DHT22;7928;43.614;1.456;2023-03-01T02:12:21;1.80;1.00
15656;DHT22;7928;43.614;1.456;2023-03-01T02:14:49;1.80;1.00
15656;DHT22;7928;43.614;1.456;2023-03-01T02:17:17;1.70;1.00
15656;DHT22;7928;43.614;1.456;2023-03-01T02:19:55;1.70;1.00
15656;DHT22;7928;43.614;1.456;2023-03-01T02:22:30;1.60;1.00
15656;DHT22;7928;43.614;1.456;2023-03-01T02:25:07;1.60;1.00
15656;DHT22;7928;43.614;1.456;2023-03-01T02:27:45;1.60;1.00
15656;DHT22;7928;43.614;1.456;2023-03-01T02:30:15;1.60;1.00
15656;DHT22;7928;43.614;1.456;2023-03-01T02:32:43;1.50;1.00
15656;DHT22;7928;43.614;1.456;2023-03-01T02:35:12;1.50;1.00
15656;DHT22;7928;43.614;1.456;2023-03-01T02:37:40;1.40;1.00
15656;DHT22;7928;43.614;1.456;2023-03-01T02:40:10;1.40;1.00
15656;DHT22;7928;43.614;1.456;2023-03-01T02:42:43;1.40;1.00
15656;DHT22;7928;43.614;1.456;2023-03-01T02:45:12;1.30;1.00
15656;DHT22;7928;43.614;1.456;2023-03-01T02:47:40;1.30;1.00
15656;DHT22;7928;43.614;1.456;2023-03-01T02:50:52;1.20;1.00
15656;DHT22;7928;43.614;1.456;2023-03-01T02:53:25;1.20;1.00
15656;DHT22;7928;43.614;1.456;2023-03-01T02:55:54;1.20;1.00
15656;DHT22;7928;43.614;1.456;2023-03-01T02:58:22;1.20;1.00
15656;DHT22;7928;43.614;1.456;2023-03-01T03:00:49;1.20;1.00
15656;DHT22;7928;43.614;1.456;2023-03-01T03:03:20;1.20;1.00
15656;DHT22;7928;43.614;1.456;2023-03-01T03:05:47;1.20;1.00
15656;DHT22;7928;43.614;1.456;2023-03-01T03:08:15;1.10;1.00
15656;DHT22;7928;43.614;1.456;2023-03-01T03:10:49;1.20;1.00
15656;DHT22;7928;43.614;1.456;2023-03-01T03:13:16;1.20;1.00
15656;DHT22;7928;43.614;1.456;2023-03-01T03:15:44;1.20;1.00
15656;DHT22;7928;43.614;1.456;2023-03-01T03:18:13;1.10;1.00
15656;DHT22;7928;43.614;1.456;2023-03-01T03:20:43;1.10;1.00
15656;DHT22;7928;43.614;1.456;2023-03-01T03:23:10;1.10;1.00
15656;DHT22;7928;43.614;1.456;2023-03-01T03:25:37;1.10;1.00
15656;DHT22;7928;43.614;1.456;2023-03-01T03:28:05;1.00;1.00
15656;DHT22;7928;43.614;1.456;2023-03-01T03:30:36;1.00;1.00
15656;DHT22;7928;43.614;1.456;2023-03-01T03:33:05;1.00;1.00
15656;DHT22;7928;43.614;1.456;2023-03-01T03:35:34;1.00;1.00
15656;DHT22;7928;43.614;1.456;2023-03-01T03:38:08;1.00;1.00
15656;DHT22;7928;43.614;1.456;2023-03-01T03:40:42;1.00;1.00
15656;DHT22;7928;43.614;1.456;2023-03-01T03:43:10;1.00;1.00
15656;DHT22;7928;43.614;1.456;2023-03-01T03:45:38;1.00;1.00
15656;DHT22;7928;43.614;1.456;2023-03-01T03:48:07;0.90;1.00
15656;DHT22;7928;43.614;1.456;2023-03-01T03:50:34;0.90;1.00
15656;DHT22;7928;43.614;1.456;2023-03-01T03:53:04;0.90;1.00
15656;DHT22;7928;43.614;1.456;2023-03-01T03:55:32;0.90;1.00
15656;DHT22;7928;43.614;1.456;2023-03-01T03:58:01;0.90;1.00
15656;DHT22;7928;43.614;1.456;2023-03-01T04:00:33;0.90;1.00
15656;DHT22;7928;43.614;1.456;2023-03-01T04:03:00;0.90;1.00
15656;DHT22;7928;43.614;1.456;2023-03-01T04:05:27;0.90;1.00
15656;DHT22;7928;43.614;1.456;2023-03-01T04:07:55;0.80;1.00
15656;DHT22;7928;43.614;1.456;2023-03-01T04:10:28;0.80;1.00
15656;DHT22;7928;43.614;1.456;2023-03-01T04:12:57;0.80;1.00
15656;DHT22;7928;43.614;1.456;2023-03-01T04:15:25;0.70;1.00
15656;DHT22;7928;43.614;1.456;2023-03-01T04:17:53;0.70;1.00
15656;DHT22;7928;43.614;1.456;2023-03-01T04:20:23;0.70;1.00
15656;DHT22;7928;43.614;1.456;2023-03-01T04:22:52;0.70;1.00
15656;DHT22;7928;43.614;1.456;2023-03-01T04:25:19;0.70;1.00
15656;DHT22;7928;43.614;1.456;2023-03-01T04:27:46;0.70;1.00
15656;DHT22;7928;43.614;1.456;2023-03-01T04:30:15;0.70;1.00
15656;DHT22;7928;43.614;1.456;2023-03-01T04:32:42;0.70;2.00
15656;DHT22;7928;43.614;1.456;2023-03-01T04:35:10;0.70;2.20
15656;DHT22;7928;43.614;1.456;2023-03-01T04:37:37;0.70;2.70
15656;DHT22;7928;43.614;1.456;2023-03-01T04:40:05;0.70;5.20
15656;DHT22;7928;43.614;1.456;2023-03-01T04:42:41;0.60;6.30
15656;DHT22;7928;43.614;1.456;2023-03-01T04:45:09;0.60;9.90
15656;DHT22;7928;43.614;1.456;2023-03-01T04:47:40;0.60;10.30
15656;DHT22;7928;43.614;1.456;2023-03-01T04:50:09;0.60;11.80
15656;DHT22;7928;43.614;1.456;2023-03-01T04:52:37;0.60;15.00
15656;DHT22;7928;43.614;1.456;2023-03-01T04:55:05;0.60;17.00
15656;DHT22;7928;43.614;1.456;2023-03-01T04:57:32;0.60;18.10
15656;DHT22;7928;43.614;1.456;2023-03-01T04:59:59;0.60;16.90
15656;DHT22;7928;43.614;1.456;2023-03-01T05:02:26;0.60;17.90
15656;DHT22;7928;43.614;1.456;2023-03-01T05:04:56;0.60;16.10
15656;DHT22;7928;43.614;1.456;2023-03-01T05:07:23;0.60;14.80
15656;DHT22;7928;43.614;1.456;2023-03-01T05:09:51;0.60;14.10
15656;DHT22;7928;43.614;1.456;2023-03-01T05:12:19;0.60;12.90
15656;DHT22;7928;43.614;1.456;2023-03-01T05:14:46;0.60;9.50
15656;DHT22;7928;43.614;1.456;2023-03-01T05:17:13;0.50;11.50
15656;DHT22;7928;43.614;1.456;2023-03-01T05:19:40;0.50;15.60
15656;DHT22;7928;43.614;1.456;2023-03-01T05:22:09;0.50;14.90
15656;DHT22;7928;43.614;1.456;2023-03-01T05:24:36;0.50;14.50
15656;DHT22;7928;43.614;1.456;2023-03-01T05:27:04;0.50;16.50
15656;DHT22;7928;43.614;1.456;2023-03-01T05:29:32;0.50;16.00
15656;DHT22;7928;43.614;1.456;2023-03-01T05:32:01;0.40;17.50
15656;DHT22;7928;43.614;1.456;2023-03-01T05:34:30;0.40;20.70
15656;DHT22;7928;43.614;1.456;2023-03-01T05:36:58;0.40;23.90
15656;DHT22;7928;43.614;1.456;2023-03-01T05:39:28;0.40;25.00
15656;DHT22;7928;43.614;1.456;2023-03-01T05:41:56;0.40;26.20
15656;DHT22;7928;43.614;1.456;2023-03-01T05:44:25;0.30;25.80
15656;DHT22;7928;43.614;1.456;2023-03-01T05:46:52;0.30;26.80
15656;DHT22;7928;43.614;1.456;2023-03-01T05:49:19;0.30;25.90
15656;DHT22;7928;43.614;1.456;2023-03-01T05:51:49;0.30;25.10
15656;DHT22;7928;43.614;1.456;2023-03-01T05:54:16;0.40;23.30
15656;DHT22;7928;43.614;1.456;2023-03-01T05:56:45;0.30;22.10
15656;DHT22;7928;43.614;1.456;2023-03-01T05:59:12;0.40;21.00
15656;DHT22;7928;43.614;1.456;2023-03-01T06:01:42;0.30;21.10
15656;DHT22;7928;43.614;1.456;2023-03-01T06:04:09;0.30;25.50
15656;DHT22;7928;43.614;1.456;2023-03-01T06:06:36;0.20;25.90
15656;DHT22;7928;43.614;1.456;2023-03-01T06:09:04;0.20;26.50
15656;DHT22;7928;43.614;1.456;2023-03-01T06:11:34;0.20;28.00
15656;DHT22;7928;43.614;1.456;2023-03-01T06:14:02;0.20;27.80
15656;DHT22;7928;43.614;1.456;2023-03-01T06:16:29;0.20;28.10
15656;DHT22;7928;43.614;1.456;2023-03-01T06:18:56;0.20;27.80
15656;DHT22;7928;43.614;1.456;2023-03-01T06:21:23;0.30;28.30
15656;DHT22;7928;43.614;1.456;2023-03-01T06:23:50;0.20;25.70
15656;DHT22;7928;43.614;1.456;2023-03-01T06:26:17;0.20;23.90
15656;DHT22;7928;43.614;1.456;2023-03-01T06:28:44;0.20;22.00
15656;DHT22;7928;43.614;1.456;2023-03-01T06:31:13;0.10;22.50
15656;DHT22;7928;43.614;1.456;2023-03-01T06:33:40;0.10;23.20
15656;DHT22;7928;43.614;1.456;2023-03-01T06:36:08;0.20;24.60
15656;DHT22;7928;43.614;1.456;2023-03-01T06:38:36;0.20;23.20
15656;DHT22;7928;43.614;1.456;2023-03-01T06:41:03;0.20;22.40
15656;DHT22;7928;43.614;1.456;2023-03-01T06:43:30;0.20;22.40
15656;DHT22;7928;43.614;1.456;2023-03-01T06:45:57;0.10;21.40
15656;DHT22;7928;43.614;1.456;2023-03-01T06:48:25;0.10;23.90
15656;DHT22;7928;43.614;1.456;2023-03-01T06:50:52;0.10;27.00
15656;DHT22;7928;43.614;1.456;2023-03-01T06:53:19;0.10;29.00
15656;DHT22;7928;43.614;1.456;2023-03-01T06:55:46;0.10;29.20
15656;DHT22;7928;43.614;1.456;2023-03-01T06:58:13;0.10;28.30
15656;DHT22;7928;43.614;1.456;2023-03-01T07:00:40;0.10;28.80
15656;DHT22;7928;43.614;1.456;2023-03-01T07:03:08;0.10;29.00
15656;DHT22;7928;43.614;1.456;2023-03-01T07:05:37;0.20;31.60
15656;DHT22;7928;43.614;1.456;2023-03-01T07:08:04;0.20;30.50
15656;DHT22;7928;43.614;1.456;2023-03-01T07:10:31;0.30;29.00
15656;DHT22;7928;43.614;1.456;2023-03-01T07:12:58;0.30;28.00
15656;DHT22;7928;43.614;1.456;2023-03-01T07:15:26;0.40;28.20
15656;DHT22;7928;43.614;1.456;2023-03-01T07:17:53;0.40;30.40
15656;DHT22;7928;43.614;1.456;2023-03-01T07:20:20;0.40;33.60
15656;DHT22;7928;43.614;1.456;2023-03-01T07:22:51;0.50;34.00
15656;DHT22;7928;43.614;1.456;2023-03-01T07:25:18;0.70;34.30
15656;DHT22;7928;43.614;1.456;2023-03-01T07:27:49;0.50;34.50
15656;DHT22;7928;43.614;1.456;2023-03-01T07:30:17;0.60;33.00
15656;DHT22;7928;43.614;1.456;2023-03-01T07:32:44;0.60;31.80
15656;DHT22;7928;43.614;1.456;2023-03-01T07:35:11;0.60;32.00
15656;DHT22;7928;43.614;1.456;2023-03-01T07:37:38;0.70;30.30
15656;DHT22;7928;43.614;1.456;2023-03-01T07:40:08;0.70;29.80
15656;DHT22;7928;43.614;1.456;2023-03-01T07:42:35;0.80;30.10
15656;DHT22;7928;43.614;1.456;2023-03-01T07:45:03;0.90;29.20
15656;DHT22;7928;43.614;1.456;2023-03-01T07:47:30;0.90;25.50
15656;DHT22;7928;43.614;1.456;2023-03-01T07:49:57;0.90;22.00
15656;DHT22;7928;43.614;1.456;2023-03-01T07:52:24;1.20;21.80
15656;DHT22;7928;43.614;1.456;2023-03-01T07:54:51;1.00;8.00
15656;DHT22;7928;43.614;1.456;2023-03-01T07:57:20;1.20;2.40
15656;DHT22;7928;43.614;1.456;2023-03-01T07:59:47;1.10;1.00
15656;DHT22;7928;43.614;1.456;2023-03-01T08:02:13;1.20;1.00
15656;DHT22;7928;43.614;1.456;2023-03-01T08:04:41;1.20;1.00
15656;DHT22;7928;43.614;1.456;2023-03-01T08:07:08;1.30;1.00
15656;DHT22;7928;43.614;1.456;2023-03-01T08:09:35;1.40;1.00
15656;DHT22;7928;43.614;1.456;2023-03-01T08:12:03;1.40;1.00
15656;DHT22;7928;43.614;1.456;2023-03-01T08:14:32;1.50;1.00
15656;DHT22;7928;43.614;1.456;2023-03-01T08:16:59;1.50;1.00
15656;DHT22;7928;43.614;1.456;2023-03-01T08:19:28;1.00;1.00
15656;DHT22;7928;43.614;1.456;2023-03-01T08:21:55;1.70;1.00
15656;DHT22;7928;43.614;1.456;2023-03-01T08:24:24;1.70;1.00
15656;DHT22;7928;43.614;1.456;2023-03-01T08:26:51;1.70;1.00
15656;DHT22;7928;43.614;1.456;2023-03-01T08:29:17;1.80;1.00
15656;DHT22;7928;43.614;1.456;2023-03-01T08:31:46;1.80;1.00
15656;DHT22;7928;43.614;1.456;2023-03-01T08:34:15;1.90;1.00
15656;DHT22;7928;43.614;1.456;2023-03-01T08:36:43;2.00;1.00
15656;DHT22;7928;43.614;1.456;2023-03-01T08:39:13;2.10;1.00
15656;DHT22;7928;43.614;1.456;2023-03-01T08:41:41;2.20;1.00
15656;DHT22;7928;43.614;1.456;2023-03-01T08:44:09;2.30;1.00
15656;DHT22;7928;43.614;1.456;2023-03-01T08:46:38;2.40;1.00
15656;DHT22;7928;43.614;1.456;2023-03-01T08:49:09;2.50;1.00
15656;DHT22;7928;43.614;1.456;2023-03-01T08:51:36;2.60;1.00
15656;DHT22;7928;43.614;1.456;2023-03-01T08:54:03;2.70;1.00
15656;DHT22;7928;43.614;1.456;2023-03-01T08:56:30;2.70;1.00
15656;DHT22;7928;43.614;1.456;2023-03-01T08:58:58;2.80;1.00
15656;DHT22;7928;43.614;1.456;2023-03-01T09:01:25;2.70;99.90
15656;DHT22;7928;43.614;1.456;2023-03-01T09:03:52;2.80;99.90
15656;DHT22;7928;43.614;1.456;2023-03-01T09:06:20;2.90;99.90
15656;DHT22;7928;43.614;1.456;2023-03-01T09:08:48;3.00;99.90
15656;DHT22;7928;43.614;1.456;2023-03-01T09:11:18;3.20;99.90
15656;DHT22;7928;43.614;1.456;2023-03-01T09:13:46;3.30;99.90
15656;DHT22;7928;43.614;1.456;2023-03-01T09:16:15;3.30;99.90
15656;DHT22;7928;43.614;1.456;2023-03-01T09:18:43;3.40;99.90
15656;DHT22;7928;43.614;1.456;2023-03-01T09:21:14;3.50;99.90
15656;DHT22;7928;43.614;1.456;2023-03-01T09:23:44;3.60;99.90
15656;DHT22;7928;43.614;1.456;2023-03-01T09:26:13;3.70;99.90
15656;DHT22;7928;43.614;1.456;2023-03-01T09:28:43;3.90;99.90
15656;DHT22;7928;43.614;1.456;2023-03-01T09:31:11;4.10;99.90
15656;DHT22;7928;43.614;1.456;2023-03-01T09:33:40;4.20;99.90
15656;DHT22;7928;43.614;1.456;2023-03-01T09:36:11;4.40;99.90
15656;DHT22;7928;43.614;1.456;2023-03-01T09:38:38;4.60;99.90
15656;DHT22;7928;43.614;1.456;2023-03-01T09:41:16;4.60;99.90
15656;DHT22;7928;43.614;1.456;2023-03-01T09:43:49;4.60;99.90
15656;DHT22;7928;43.614;1.456;2023-03-01T09:46:21;4.80;99.90
15656;DHT22;7928;43.614;1.456;2023-03-01T09:48:51;4.70;99.90
15656;DHT22;7928;43.614;1.456;2023-03-01T09:51:25;4.90;99.90
15656;DHT22;7928;43.614;1.456;2023-03-01T09:53:53;4.90;99.90
15656;DHT22;7928;43.614;1.456;2023-03-01T09:56:30;4.90;99.90
15656;DHT22;7928;43.614;1.456;2023-03-01T09:59:06;4.00;99.90
15656;DHT22;7928;43.614;1.456;2023-03-01T10:01:39;5.50;99.90
15656;DHT22;7928;43.614;1.456;2023-03-01T10:04:27;5.80;99.90
15656;DHT22;7928;43.614;1.456;2023-03-01T10:07:14;5.90;99.90
15656;DHT22;7928;43.614;1.456;2023-03-01T10:09:45;6.30;99.90
15656;DHT22;7928;43.614;1.456;2023-03-01T10:12:16;6.80;99.90
15656;DHT22;7928;43.614;1.456;2023-03-01T10:14:51;7.30;99.90
15656;DHT22;7928;43.614;1.456;2023-03-01T10:17:26;7.70;99.90
15656;DHT22;7928;43.614;1.456;2023-03-01T10:19:55;8.10;99.90
15656;DHT22;7928;43.614;1.456;2023-03-01T10:22:27;8.60;99.90
15656;DHT22;7928;43.614;1.456;2023-03-01T10:24:56;9.90;99.90
15656;DHT22;7928;43.614;1.456;2023-03-01T10:27:29;11.90;98.60
15656;DHT22;7928;43.614;1.456;2023-03-01T10:30:09;13.70;94.50
15656;DHT22;7928;43.614;1.456;2023-03-01T10:32:37;14.80;90.30
15656;DHT22;7928;43.614;1.456;2023-03-01T10:35:16;15.70;83.50
15656;DHT22;7928;43.614;1.456;2023-03-01T10:37:57;16.30;76.50
15656;DHT22;7928;43.614;1.456;2023-03-01T10:40:24;16.70;71.10
15656;DHT22;7928;43.614;1.456;2023-03-01T10:42:53;17.40;68.20
15656;DHT22;7928;43.614;1.456;2023-03-01T10:45:31;17.70;64.20
15656;DHT22;7928;43.614;1.456;2023-03-01T10:48:05;17.80;63.10
15656;DHT22;7928;43.614;1.456;2023-03-01T10:50:32;18.70;60.50
15656;DHT22;7928;43.614;1.456;2023-03-01T10:53:22;18.20;59.80
15656;DHT22;7928;43.614;1.456;2023-03-01T10:55:58;18.10;58.10
15656;DHT22;7928;43.614;1.456;2023-03-01T10:58:28;18.00;59.00
15656;DHT22;7928;43.614;1.456;2023-03-01T11:00:57;17.20;58.00
15656;DHT22;7928;43.614;1.456;2023-03-01T11:03:25;16.30;60.50
15656;DHT22;7928;43.614;1.456;2023-03-01T11:05:59;15.60;61.80
15656;DHT22;7928;43.614;1.456;2023-03-01T11:08:32;16.50;61.60
15656;DHT22;7928;43.614;1.456;2023-03-01T11:11:17;18.10;59.90
15656;DHT22;7928;43.614;1.456;2023-03-01T11:13:55;19.00;57.50
15656;DHT22;7928;43.614;1.456;2023-03-01T11:16:25;19.80;56.50
15656;DHT22;7928;43.614;1.456;2023-03-01T11:18:57;20.00;55.60
15656;DHT22;7928;43.614;1.456;2023-03-01T11:21:25;20.30;54.80
15656;DHT22;7928;43.614;1.456;2023-03-01T11:23:55;20.00;54.10
15656;DHT22;7928;43.614;1.456;2023-03-01T11:26:23;20.40;53.40
15656;DHT22;7928;43.614;1.456;2023-03-01T11:28:56;20.10;52.80
15656;DHT22;7928;43.614;1.456;2023-03-01T11:31:25;20.20;52.70
15656;DHT22;7928;43.614;1.456;2023-03-01T11:33:57;20.30;52.20
15656;DHT22;7928;43.614;1.456;2023-03-01T11:36:39;21.00;52.30
15656;DHT22;7928;43.614;1.456;2023-03-01T11:39:21;21.50;51.80
15656;DHT22;7928;43.614;1.456;2023-03-01T11:42:00;21.70;50.50
15656;DHT22;7928;43.614;1.456;2023-03-01T11:44:31;22.00;49.40
15656;DHT22;7928;43.614;1.456;2023-03-01T11:47:26;21.80;48.10
15656;DHT22;7928;43.614;1.456;2023-03-01T11:50:15;21.10;49.20
15656;DHT22;7928;43.614;1.456;2023-03-01T11:52:53;21.20;49.40
15656;DHT22;7928;43.614;1.456;2023-03-01T11:55:35;20.90;48.60
15656;DHT22;7928;43.614;1.456;2023-03-01T11:58:19;20.50;48.40
15656;DHT22;7928;43.614;1.456;2023-03-01T12:01:07;19.60;47.20
15656;DHT22;7928;43.614;1.456;2023-03-01T12:04:08;19.30;46.80
15656;DHT22;7928;43.614;1.456;2023-03-01T12:06:48;19.10;47.50
15656;DHT22;7928;43.614;1.456;2023-03-01T12:09:27;19.50;46.70
15656;DHT22;7928;43.614;1.456;2023-03-01T12:15:11;19.50;46.40
15656;DHT22;7928;43.614;1.456;2023-03-01T12:20:49;19.20;45.60
15656;DHT22;7928;43.614;1.456;2023-03-01T12:23:38;20.10;47.10
15656;DHT22;7928;43.614;1.456;2023-03-01T12:26:12;19.90;45.50
15656;DHT22;7928;43.614;1.456;2023-03-01T12:28:50;19.70;45.70
15656;DHT22;7928;43.614;1.456;2023-03-01T12:37:29;18.80;46.60
15656;DHT22;7928;43.614;1.456;2023-03-01T12:40:11;18.90;46.60
15656;DHT22;7928;43.614;1.456;2023-03-01T12:42:47;18.90;46.30
15656;DHT22;7928;43.614;1.456;2023-03-01T12:45:34;18.70;46.80
15656;DHT22;7928;43.614;1.456;2023-03-01T12:48:31;19.40;46.20
15656;DHT22;7928;43.614;1.456;2023-03-01T12:51:05;18.90;47.00
15656;DHT22;7928;43.614;1.456;2023-03-01T12:53:36;18.50;47.40
15656;DHT22;7928;43.614;1.456;2023-03-01T12:56:06;19.20;46.90
15656;DHT22;7928;43.614;1.456;2023-03-01T12:58:42;19.50;47.40
15656;DHT22;7928;43.614;1.456;2023-03-01T13:01:21;20.30;46.70
15656;DHT22;7928;43.614;1.456;2023-03-01T13:07:23;20.10;46.80
15656;DHT22;7928;43.614;1.456;2023-03-01T13:10:04;19.60;46.00
15656;DHT22;7928;43.614;1.456;2023-03-01T13:12:51;19.60;46.90
15656;DHT22;7928;43.614;1.456;2023-03-01T13:15:33;20.20;47.30
15656;DHT22;7928;43.614;1.456;2023-03-01T13:18:02;20.70;46.40
15656;DHT22;7928;43.614;1.456;2023-03-01T13:20:34;19.60;45.90
15656;DHT22;7928;43.614;1.456;2023-03-01T13:23:13;18.50;46.60
15656;DHT22;7928;43.614;1.456;2023-03-01T13:26:18;18.70;47.20
15656;DHT22;7928;43.614;1.456;2023-03-01T13:28:51;19.10;47.10
15656;DHT22;7928;43.614;1.456;2023-03-01T13:34:49;19.20;46.70
15656;DHT22;7928;43.614;1.456;2023-03-01T13:37:25;20.70;46.20
15656;DHT22;7928;43.614;1.456;2023-03-01T13:39:55;19.50;45.90
15656;DHT22;7928;43.614;1.456;2023-03-01T13:42:42;20.10;45.90
15656;DHT22;7928;43.614;1.456;2023-03-01T13:45:33;20.20;45.50
15656;DHT22;7928;43.614;1.456;2023-03-01T13:48:03;19.40;46.20
15656;DHT22;7928;43.614;1.456;2023-03-01T13:50:42;20.60;46.10
15656;DHT22;7928;43.614;1.456;2023-03-01T13:53:14;20.40;45.70
15656;DHT22;7928;43.614;1.456;2023-03-01T13:55:44;20.40;46.00
15656;DHT22;7928;43.614;1.456;2023-03-01T13:58:21;21.20;46.40
15656;DHT22;7928;43.614;1.456;2023-03-01T14:00:55;21.00;45.00
15656;DHT22;7928;43.614;1.456;2023-03-01T14:03:22;20.20;45.60
15656;DHT22;7928;43.614;1.456;2023-03-01T14:06:03;20.40;45.90
15656;DHT22;7928;43.614;1.456;2023-03-01T14:08:32;20.70;45.80
15656;DHT22;7928;43.614;1.456;2023-03-01T14:14:43;21.20;45.00
15656;DHT22;7928;43.614;1.456;2023-03-01T14:17:47;21.50;45.50
15656;DHT22;7928;43.614;1.456;2023-03-01T14:20:19;20.60;45.90
15656;DHT22;7928;43.614;1.456;2023-03-01T14:22:47;21.90;46.20
15656;DHT22;7928;43.614;1.456;2023-03-01T14:25:24;22.30;45.50
15656;DHT22;7928;43.614;1.456;2023-03-01T14:27:55;21.80;45.60
15656;DHT22;7928;43.614;1.456;2023-03-01T14:30:26;22.30;45.60
15656;DHT22;7928;43.614;1.456;2023-03-01T14:32:55;22.50;45.30
15656;DHT22;7928;43.614;1.456;2023-03-01T14:35:24;22.90;44.90
15656;DHT22;7928;43.614;1.456;2023-03-01T14:37:52;22.90;45.40
15656;DHT22;7928;43.614;1.456;2023-03-01T14:40:24;23.40;45.20
15656;DHT22;7928;43.614;1.456;2023-03-01T14:42:52;23.90;44.30
15656;DHT22;7928;43.614;1.456;2023-03-01T14:45:20;24.10;44.30
15656;DHT22;7928;43.614;1.456;2023-03-01T14:47:49;24.10;43.80
15656;DHT22;7928;43.614;1.456;2023-03-01T14:50:21;23.80;43.40
15656;DHT22;7928;43.614;1.456;2023-03-01T14:52:52;22.00;43.50
15656;DHT22;7928;43.614;1.456;2023-03-01T14:55:22;21.90;44.90
15656;DHT22;7928;43.614;1.456;2023-03-01T14:57:52;22.10;45.40
15656;DHT22;7928;43.614;1.456;2023-03-01T15:00:21;22.50;44.70
15656;DHT22;7928;43.614;1.456;2023-03-01T15:02:51;22.20;43.80
15656;DHT22;7928;43.614;1.456;2023-03-01T15:05:24;22.20;44.00
15656;DHT22;7928;43.614;1.456;2023-03-01T15:07:53;22.80;43.50
15656;DHT22;7928;43.614;1.456;2023-03-01T15:10:22;23.30;43.80
15656;DHT22;7928;43.614;1.456;2023-03-01T15:12:50;23.70;43.20
15656;DHT22;7928;43.614;1.456;2023-03-01T15:15:30;23.30;43.00
15656;DHT22;7928;43.614;1.456;2023-03-01T15:18:01;23.90;43.10
15656;DHT22;7928;43.614;1.456;2023-03-01T15:20:30;24.10;43.00
15656;DHT22;7928;43.614;1.456;2023-03-01T15:23:02;24.30;42.30
15656;DHT22;7928;43.614;1.456;2023-03-01T15:25:32;23.60;42.30
15656;DHT22;7928;43.614;1.456;2023-03-01T15:28:01;23.80;42.60
15656;DHT22;7928;43.614;1.456;2023-03-01T15:30:31;23.10;42.50
15656;DHT22;7928;43.614;1.456;2023-03-01T15:33:31;23.60;42.60
15656;DHT22;7928;43.614;1.456;2023-03-01T15:36:00;22.40;42.40
15656;DHT22;7928;43.614;1.456;2023-03-01T15:38:30;22.50;42.60
15656;DHT22;7928;43.614;1.456;2023-03-01T15:40:59;22.80;42.80
15656;DHT22;7928;43.614;1.456;2023-03-01T15:43:42;23.10;42.70
15656;DHT22;7928;43.614;1.456;2023-03-01T15:46:21;22.90;42.50
15656;DHT22;7928;43.614;1.456;2023-03-01T15:48:53;22.90;42.70
15656;DHT22;7928;43.614;1.456;2023-03-01T15:51:27;22.70;43.20
15656;DHT22;7928;43.614;1.456;2023-03-01T15:53:56;22.10;42.90
15656;DHT22;7928;43.614;1.456;2023-03-01T15:56:25;21.90;43.50
15656;DHT22;7928;43.614;1.456;2023-03-01T15:58:52;21.10;43.80
15656;DHT22;7928;43.614;1.456;2023-03-01T16:01:19;20.90;44.30
15656;DHT22;7928;43.614;1.456;2023-03-01T16:03:46;20.70;44.40
15656;DHT22;7928;43.614;1.456;2023-03-01T16:06:14;20.60;44.60
15656;DHT22;7928;43.614;1.456;2023-03-01T16:08:41;19.70;44.70
15656;DHT22;7928;43.614;1.456;2023-03-01T16:11:15;19.40;45.30
15656;DHT22;7928;43.614;1.456;2023-03-01T16:13:42;19.30;45.50
15656;DHT22;7928;43.614;1.456;2023-03-01T16:16:11;21.30;47.20
15656;DHT22;7928;43.614;1.456;2023-03-01T16:18:41;18.70;45.90
15656;DHT22;7928;43.614;1.456;2023-03-01T16:21:14;18.20;46.40
15656;DHT22;7928;43.614;1.456;2023-03-01T16:23:43;18.00;47.20
15656;DHT22;7928;43.614;1.456;2023-03-01T16:26:11;17.80;47.60
15656;DHT22;7928;43.614;1.456;2023-03-01T16:28:40;17.40;47.70
15656;DHT22;7928;43.614;1.456;2023-03-01T16:31:07;16.80;48.60
15656;DHT22;7928;43.614;1.456;2023-03-01T16:33:35;16.40;49.20
15656;DHT22;7928;43.614;1.456;2023-03-01T16:36:06;16.00;49.40
15656;DHT22;7928;43.614;1.456;2023-03-01T16:38:35;15.60;50.00
15656;DHT22;7928;43.614;1.456;2023-03-01T16:41:02;15.60;50.80
15656;DHT22;7928;43.614;1.456;2023-03-01T16:43:29;15.10;51.20
15656;DHT22;7928;43.614;1.456;2023-03-01T16:45:57;14.60;51.60
15656;DHT22;7928;43.614;1.456;2023-03-01T16:48:25;14.50;52.60